sensor_id;sensor_type;location;lat;lon;timestamp;pressure;altitude;pressure_sealevel;temperature;humidity
6032;BME280;3044;43.232;27.972;2023-04-28T00:01:44;45150.00;;;-143.84;54.79
6032;BME280;3044;43.232;27.972;2023-04-28T00:04:12;45146.19;;;-143.84;54.85
6032;BME280;3044;43.232;27.972;2023-04-28T00:06:39;45169.03;;;-143.84;55.30
6032;BME280;3044;43.232;27.972;2023-04-28T00:09:06;45172.84;;;-143.84;55.50
6032;BME280;3044;43.232;27.972;2023-04-28T00:11:37;45159.50;;;-143.84;55.20
6032;BME280;3044;43.232;27.972;2023-04-28T00:14:04;45161.41;;;-143.84;55.30
6032;BME280;3044;43.232;27.972;2023-04-28T00:16:31;45178.56;;;-143.84;55.18
6032;BME280;3044;43.232;27.972;2023-04-28T00:18:58;45148.09;;;-143.84;55.43
6032;BME280;3044;43.232;27.972;2023-04-28T00:21:25;45172.84;;;-143.84;55.33
6032;BME280;3044;43.232;27.972;2023-04-28T00:23:53;45199.50;;;-143.84;55.80
6032;BME280;3044;43.232;27.972;2023-04-28T00:26:20;45142.38;;;-143.84;55.83
6032;BME280;3044;43.232;27.972;2023-04-28T00:28:49;45163.31;;;-143.84;56.18
6032;BME280;3044;43.232;27.972;2023-04-28T00:31:16;45169.03;;;-143.84;56.39
6032;BME280;3044;43.232;27.972;2023-04-28T00:33:43;45163.31;;;-143.84;56.31
6032;BME280;3044;43.232;27.972;2023-04-28T00:36:10;45176.66;;;-143.84;56.36
6032;BME280;3044;43.232;27.972;2023-04-28T00:38:37;45163.31;;;-143.84;57.20
6032;BME280;3044;43.232;27.972;2023-04-28T00:41:05;45159.50;;;-143.84;57.46
6032;BME280;3044;43.232;27.972;2023-04-28T00:43:43;45167.13;;;-143.84;58.10
6032;BME280;3044;43.232;27.972;2023-04-28T00:46:16;45184.25;;;-143.84;58.62
6032;BME280;3044;43.232;27.972;2023-04-28T00:48:45;45169.03;;;-143.84;59.17
6032;BME280;3044;43.232;27.972;2023-04-28T00:51:13;45167.13;;;-143.84;58.82
6032;BME280;3044;43.232;27.972;2023-04-28T00:53:40;45159.50;;;-143.84;59.04
6032;BME280;3044;43.232;27.972;2023-04-28T00:56:08;45159.50;;;-143.84;58.73
6032;BME280;3044;43.232;27.972;2023-04-28T00:58:36;45184.25;;;-143.84;58.90
6032;BME280;3044;43.232;27.972;2023-04-28T01:01:04;45144.28;;;-143.84;58.96
6032;BME280;3044;43.232;27.972;2023-04-28T01:03:34;45163.31;;;-143.84;59.04
6032;BME280;3044;43.232;27.972;2023-04-28T01:06:03;45180.47;;;-143.84;58.64
6032;BME280;3044;43.232;27.972;2023-04-28T01:08:32;45159.50;;;-143.84;58.81
6032;BME280;3044;43.232;27.972;2023-04-28T01:10:59;45174.75;;;-143.84;58.53
6032;BME280;3044;43.232;27.972;2023-04-28T01:13:26;45161.41;;;-143.84;58.67
6032;BME280;3044;43.232;27.972;2023-04-28T01:15:54;45153.81;;;-143.84;58.69
6032;BME280;3044;43.232;27.972;2023-04-28T01:18:21;45170.94;;;-143.84;58.79
6032;BME280;3044;43.232;27.972;2023-04-28T01:20:50;45189.97;;;-143.84;58.38
6032;BME280;3044;43.232;27.972;2023-04-28T01:23:17;45195.69;;;-143.84;58.23
6032;BME280;3044;43.232;27.972;2023-04-28T01:25:46;45148.09;;;-143.84;57.89
6032;BME280;3044;43.232;27.972;2023-04-28T01:28:13;45163.31;;;-143.84;58.40
6032;BME280;3044;43.232;27.972;2023-04-28T01:30:40;45172.84;;;-143.84;57.42
6032;BME280;3044;43.232;27.972;2023-04-28T01:33:07;45151.91;;;-143.84;57.93
6032;BME280;3044;43.232;27.972;2023-04-28T01:35:34;45195.69;;;-143.84;57.22
6032;BME280;3044;43.232;27.972;2023-04-28T01:38:01;45186.16;;;-143.84;56.96
6032;BME280;3044;43.232;27.972;2023-04-28T01:40:28;45142.38;;;-143.84;56.45
6032;BME280;3044;43.232;27.972;2023-04-28T01:42:57;45159.50;;;-143.84;56.34
6032;BME280;3044;43.232;27.972;2023-04-28T01:45:24;45163.31;;;-143.84;55.91
6032;BME280;3044;43.232;27.972;2023-04-28T01:47:51;45178.56;;;-143.84;56.17
6032;BME280;3044;43.232;27.972;2023-04-28T01:50:18;45167.13;;;-143.84;56.91
6032;BME280;3044;43.232;27.972;2023-04-28T01:52:45;45195.69;;;-143.84;56.77
6032;BME280;3044;43.232;27.972;2023-04-28T01:55:13;45157.59;;;-143.84;56.87
6032;BME280;3044;43.232;27.972;2023-04-28T01:57:40;45174.75;;;-143.84;57.46
6032;BME280;3044;43.232;27.972;2023-04-28T02:00:09;45184.25;;;-143.84;56.72
6032;BME280;3044;43.232;27.972;2023-04-28T02:02:36;45178.56;;;-143.84;56.76
6032;BME280;3044;43.232;27.972;2023-04-28T02:05:04;45193.78;;;-143.84;56.94
6032;BME280;3044;43.232;27.972;2023-04-28T02:07:31;45148.09;;;-143.84;56.79
6032;BME280;3044;43.232;27.972;2023-04-28T02:09:58;45193.78;;;-143.84;56.48
6032;BME280;3044;43.232;27.972;2023-04-28T02:12:25;45180.47;;;-143.84;56.65
6032;BME280;3044;43.232;27.972;2023-04-28T02:14:52;45167.13;;;-143.84;57.16
6032;BME280;3044;43.232;27.972;2023-04-28T02:17:21;45169.03;;;-143.84;56.79
6032;BME280;3044;43.232;27.972;2023-04-28T02:19:53;45161.41;;;-143.84;56.95
6032;BME280;3044;43.232;27.972;2023-04-28T02:22:20;45167.13;;;-143.84;57.13
6032;BME280;3044;43.232;27.972;2023-04-28T02:24:48;45174.75;;;-143.84;56.99
6032;BME280;3044;43.232;27.972;2023-04-28T02:27:15;45180.47;;;-143.84;56.79
6032;BME280;3044;43.232;27.972;2023-04-28T02:29:42;45163.31;;;-143.84;56.85
6032;BME280;3044;43.232;27.972;2023-04-28T02:32:09;45176.66;;;-143.84;56.57
6032;BME280;3044;43.232;27.972;2023-04-28T02:34:38;45151.91;;;-143.84;56.26
6032;BME280;3044;43.232;27.972;2023-04-28T02:37:05;45161.41;;;-143.84;55.95
6032;BME280;3044;43.232;27.972;2023-04-28T02:39:32;45197.59;;;-143.84;56.33
6032;BME280;3044;43.232;27.972;2023-04-28T02:41:59;45146.19;;;-143.84;55.91
6032;BME280;3044;43.232;27.972;2023-04-28T02:44:27;45189.97;;;-143.84;56.78
6032;BME280;3044;43.232;27.972;2023-04-28T02:46:54;45163.31;;;-143.84;56.89
6032;BME280;3044;43.232;27.972;2023-04-28T02:49:21;45163.31;;;-143.84;56.71
6032;BME280;3044;43.232;27.972;2023-04-28T02:51:50;45165.22;;;-143.84;56.82
6032;BME280;3044;43.232;27.972;2023-04-28T02:54:17;45186.16;;;-143.84;56.72
6032;BME280;3044;43.232;27.972;2023-04-28T02:56:51;45218.53;;;-143.84;57.15
6032;BME280;3044;43.232;27.972;2023-04-28T02:59:19;45172.84;;;-143.84;56.45
6032;BME280;3044;43.232;27.972;2023-04-28T03:01:46;45161.41;;;-143.84;56.65
6032;BME280;3044;43.232;27.972;2023-04-28T03:04:13;45163.31;;;-143.84;56.39
6032;BME280;3044;43.232;27.972;2023-04-28T03:06:40;45165.22;;;-143.84;56.08
6032;BME280;3044;43.232;27.972;2023-04-28T03:09:09;45170.94;;;-143.84;55.54
6032;BME280;3044;43.232;27.972;2023-04-28T03:11:37;45165.22;;;-143.84;55.42
6032;BME280;3044;43.232;27.972;2023-04-28T03:14:04;45155.69;;;-143.84;55.25
6032;BME280;3044;43.232;27.972;2023-04-28T03:16:31;45186.16;;;-143.84;56.88
6032;BME280;3044;43.232;27.972;2023-04-28T03:18:58;45151.91;;;-143.84;55.24
6032;BME280;3044;43.232;27.972;2023-04-28T03:21:26;45174.75;;;-143.84;55.57
6032;BME280;3044;43.232;27.972;2023-04-28T03:23:53;45159.50;;;-143.84;55.65
6032;BME280;3044;43.232;27.972;2023-04-28T03:26:22;45167.13;;;-143.84;54.74
6032;BME280;3044;43.232;27.972;2023-04-28T03:28:49;45188.06;;;-143.84;54.24
6032;BME280;3044;43.232;27.972;2023-04-28T03:31:16;45186.16;;;-143.84;53.88
6032;BME280;3044;43.232;27.972;2023-04-28T03:33:43;45195.69;;;-143.84;53.05
6032;BME280;3044;43.232;27.972;2023-04-28T03:36:11;45169.03;;;-143.84;55.23
6032;BME280;3044;43.232;27.972;2023-04-28T03:38:38;45148.09;;;-143.84;54.45
6032;BME280;3044;43.232;27.972;2023-04-28T03:41:05;45178.56;;;-143.84;53.49
6032;BME280;3044;43.232;27.972;2023-04-28T03:43:34;45176.66;;;-143.84;52.87
6032;BME280;3044;43.232;27.972;2023-04-28T03:46:02;45129.03;;;-143.84;51.04
6032;BME280;3044;43.232;27.972;2023-04-28T03:48:29;45186.16;;;-143.84;50.38
6032;BME280;3044;43.232;27.972;2023-04-28T03:50:56;45155.69;;;-143.84;48.55
6032;BME280;3044;43.232;27.972;2023-04-28T03:53:23;45148.09;;;-143.84;47.48
6032;BME280;3044;43.232;27.972;2023-04-28T03:55:50;45153.81;;;-143.84;45.90
6032;BME280;3044;43.232;27.972;2023-04-28T03:58:18;45142.38;;;-143.84;44.96
6032;BME280;3044;43.232;27.972;2023-04-28T04:00:46;45117.63;;;-143.84;42.70
6032;BME280;3044;43.232;27.972;2023-04-28T04:03:14;45167.13;;;-143.84;42.14
6032;BME280;3044;43.232;27.972;2023-04-28T04:05:41;45140.47;;;-143.84;41.63
6032;BME280;3044;43.232;27.972;2023-04-28T04:08:08;45142.38;;;-143.84;41.18
6032;BME280;3044;43.232;27.972;2023-04-28T04:10:35;45148.09;;;-143.84;41.03
6032;BME280;3044;43.232;27.972;2023-04-28T04:13:02;45140.47;;;-143.84;40.34
6032;BME280;3044;43.232;27.972;2023-04-28T04:15:29;45121.44;;;-143.84;40.27
6032;BME280;3044;43.232;27.972;2023-04-28T04:17:58;45132.84;;;-143.84;40.06
6032;BME280;3044;43.232;27.972;2023-04-28T04:20:25;45138.56;;;-143.84;39.92
6032;BME280;3044;43.232;27.972;2023-04-28T04:22:52;45125.22;;;-143.84;39.77
6032;BME280;3044;43.232;27.972;2023-04-28T04:25:19;45134.75;;;-143.84;39.87
6032;BME280;3044;43.232;27.972;2023-04-28T04:27:46;45127.13;;;-143.84;39.42
6032;BME280;3044;43.232;27.972;2023-04-28T04:30:13;45146.19;;;-143.84;39.68
6032;BME280;3044;43.232;27.972;2023-04-28T04:32:41;45130.94;;;-143.84;39.26
6032;BME280;3044;43.232;27.972;2023-04-28T04:35:09;45125.22;;;-143.84;39.43
6032;BME280;3044;43.232;27.972;2023-04-28T04:37:36;45111.91;;;-143.84;39.10
6032;BME280;3044;43.232;27.972;2023-04-28T04:40:05;45151.91;;;-143.84;39.20
6032;BME280;3044;43.232;27.972;2023-04-28T04:42:32;45129.03;;;-143.84;38.90
6032;BME280;3044;43.232;27.972;2023-04-28T04:44:59;45125.22;;;-143.84;38.57
6032;BME280;3044;43.232;27.972;2023-04-28T04:47:26;45111.91;;;-143.84;38.38
6032;BME280;3044;43.232;27.972;2023-04-28T04:49:53;45127.13;;;-143.84;37.84
6032;BME280;3044;43.232;27.972;2023-04-28T04:52:22;45098.56;;;-143.84;37.59
6032;BME280;3044;43.232;27.972;2023-04-28T04:54:49;45098.56;;;-143.84;37.75
6032;BME280;3044;43.232;27.972;2023-04-28T04:57:16;45111.91;;;-143.84;37.13
6032;BME280;3044;43.232;27.972;2023-04-28T04:59:43;45110.00;;;-143.84;37.07
6032;BME280;3044;43.232;27.972;2023-04-28T05:02:11;45119.53;;;-143.84;37.10
6032;BME280;3044;43.232;27.972;2023-04-28T05:04:38;45142.38;;;-143.84;36.41
6032;BME280;3044;43.232;27.972;2023-04-28T05:07:05;45085.25;;;-143.84;36.39
6032;BME280;3044;43.232;27.972;2023-04-28T05:09:33;45110.00;;;-143.84;36.36
6032;BME280;3044;43.232;27.972;2023-04-28T05:12:00;45104.28;;;-143.84;35.69
6032;BME280;3044;43.232;27.972;2023-04-28T05:14:28;45090.97;;;-143.84;35.90
6032;BME280;3044;43.232;27.972;2023-04-28T05:16:55;45090.97;;;-143.84;35.49
6032;BME280;3044;43.232;27.972;2023-04-28T05:19:22;45098.56;;;-143.84;35.11
6032;BME280;3044;43.232;27.972;2023-04-28T05:21:49;45117.63;;;-143.84;34.71
6032;BME280;3044;43.232;27.972;2023-04-28T05:24:20;45102.38;;;-143.84;34.84
6032;BME280;3044;43.232;27.972;2023-04-28T05:26:49;45110.00;;;-143.84;34.78
6032;BME280;3044;43.232;27.972;2023-04-28T05:29:17;45111.91;;;-143.84;34.22
6032;BME280;3044;43.232;27.972;2023-04-28T05:31:44;45077.63;;;-143.84;34.28
6032;BME280;3044;43.232;27.972;2023-04-28T05:34:11;45096.66;;;-143.84;34.16
6032;BME280;3044;43.232;27.972;2023-04-28T05:36:38;45108.09;;;-143.84;34.14
6032;BME280;3044;43.232;27.972;2023-04-28T05:39:06;45115.72;;;-143.84;33.97
6032;BME280;3044;43.232;27.972;2023-04-28T05:41:34;45098.56;;;-143.84;33.78
6032;BME280;3044;43.232;27.972;2023-04-28T05:44:02;45111.91;;;-143.84;33.78
6032;BME280;3044;43.232;27.972;2023-04-28T05:46:30;45096.66;;;-143.84;33.49
6032;BME280;3044;43.232;27.972;2023-04-28T05:48:57;45100.47;;;-143.84;34.13
6032;BME280;3044;43.232;27.972;2023-04-28T05:51:24;45094.78;;;-143.84;33.83
6032;BME280;3044;43.232;27.972;2023-04-28T05:53:52;45098.56;;;-143.84;33.74
6032;BME280;3044;43.232;27.972;2023-04-28T05:56:19;45096.66;;;-143.84;33.69
6032;BME280;3044;43.232;27.972;2023-04-28T05:58:46;45102.38;;;-143.84;33.54
6032;BME280;3044;43.232;27.972;2023-04-28T06:01:16;45104.28;;;-143.84;33.20
6032;BME280;3044;43.232;27.972;2023-04-28T06:03:44;45094.78;;;-143.84;33.52
6032;BME280;3044;43.232;27.972;2023-04-28T06:06:11;45081.44;;;-143.84;33.19
6032;BME280;3044;43.232;27.972;2023-04-28T06:08:38;45073.81;;;-143.84;33.08
6032;BME280;3044;43.232;27.972;2023-04-28T06:11:05;45100.47;;;-143.84;33.69
6032;BME280;3044;43.232;27.972;2023-04-28T06:13:32;45100.47;;;-143.84;33.36
6032;BME280;3044;43.232;27.972;2023-04-28T06:16:00;45085.25;;;-143.84;33.12
6032;BME280;3044;43.232;27.972;2023-04-28T06:18:28;45100.47;;;-143.84;33.46
6032;BME280;3044;43.232;27.972;2023-04-28T06:20:57;45100.47;;;-143.84;33.01
6032;BME280;3044;43.232;27.972;2023-04-28T06:23:24;45113.81;;;-143.84;33.64
6032;BME280;3044;43.232;27.972;2023-04-28T06:25:51;45094.78;;;-143.84;33.45
6032;BME280;3044;43.232;27.972;2023-04-28T06:28:18;45075.72;;;-143.84;34.04
6032;BME280;3044;43.232;27.972;2023-04-28T06:30:45;45081.44;;;-143.84;33.97
6032;BME280;3044;43.232;27.972;2023-04-28T06:33:12;45090.97;;;-143.84;33.43
6032;BME280;3044;43.232;27.972;2023-04-28T06:35:40;45090.97;;;-143.84;33.17
6032;BME280;3044;43.232;27.972;2023-04-28T06:38:08;45079.53;;;-143.84;32.54
6032;BME280;3044;43.232;27.972;2023-04-28T06:40:35;45092.88;;;-143.84;33.00
6032;BME280;3044;43.232;27.972;2023-04-28T06:43:02;45115.72;;;-143.84;33.29
6032;BME280;3044;43.232;27.972;2023-04-28T06:45:30;45089.06;;;-143.84;33.64
6032;BME280;3044;43.232;27.972;2023-04-28T06:47:57;45083.34;;;-143.84;32.94
6032;BME280;3044;43.232;27.972;2023-04-28T06:50:24;45090.97;;;-143.84;33.14
6032;BME280;3044;43.232;27.972;2023-04-28T06:52:53;45092.88;;;-143.84;33.11
6032;BME280;3044;43.232;27.972;2023-04-28T06:55:20;45104.28;;;-143.84;32.71
6032;BME280;3044;43.232;27.972;2023-04-28T06:57:48;45081.44;;;-143.84;32.86
6032;BME280;3044;43.232;27.972;2023-04-28T07:00:16;45081.44;;;-143.84;32.58
6032;BME280;3044;43.232;27.972;2023-04-28T07:02:43;45102.38;;;-143.84;32.78
6032;BME280;3044;43.232;27.972;2023-04-28T07:05:10;45060.50;;;-143.84;32.21
6032;BME280;3044;43.232;27.972;2023-04-28T07:07:37;45108.09;;;-143.84;31.91
6032;BME280;3044;43.232;27.972;2023-04-28T07:10:06;45081.44;;;-143.84;32.04
6032;BME280;3044;43.232;27.972;2023-04-28T07:12:34;45089.06;;;-143.84;32.23
6032;BME280;3044;43.232;27.972;2023-04-28T07:15:01;45096.66;;;-143.84;32.57
6032;BME280;3044;43.232;27.972;2023-04-28T07:17:28;45098.56;;;-143.84;33.05
6032;BME280;3044;43.232;27.972;2023-04-28T07:19:55;45075.72;;;-143.84;32.89
6032;BME280;3044;43.232;27.972;2023-04-28T07:22:22;45108.09;;;-143.84;32.60
6032;BME280;3044;43.232;27.972;2023-04-28T07:24:49;45113.81;;;-143.84;32.81
6032;BME280;3044;43.232;27.972;2023-04-28T07:27:17;45090.97;;;-143.84;32.34
6032;BME280;3044;43.232;27.972;2023-04-28T07:29:45;45089.06;;;-143.84;32.71
6032;BME280;3044;43.232;27.972;2023-04-28T07:32:12;45119.53;;;-143.84;32.82
6032;BME280;3044;43.232;27.972;2023-04-28T07:34:39;45098.56;;;-143.84;32.68
6032;BME280;3044;43.232;27.972;2023-04-28T07:37:06;45087.16;;;-143.84;32.43
6032;BME280;3044;43.232;27.972;2023-04-28T07:39:33;45073.81;;;-143.84;32.51
6032;BME280;3044;43.232;27.972;2023-04-28T07:42:00;45070.00;;;-143.84;31.59
6032;BME280;3044;43.232;27.972;2023-04-28T07:44:29;45073.81;;;-143.84;31.24
6032;BME280;3044;43.232;27.972;2023-04-28T07:46:58;45090.97;;;-143.84;32.53
6032;BME280;3044;43.232;27.972;2023-04-28T07:49:25;45081.44;;;-143.84;32.18
6032;BME280;3044;43.232;27.972;2023-04-28T07:51:53;45090.97;;;-143.84;31.97
6032;BME280;3044;43.232;27.972;2023-04-28T07:54:21;45110.00;;;-143.84;32.59
6032;BME280;3044;43.232;27.972;2023-04-28T07:56:48;45077.63;;;-143.84;32.00
6032;BME280;3044;43.232;27.972;2023-04-28T07:59:16;45068.13;;;-143.84;31.53
6032;BME280;3044;43.232;27.972;2023-04-28T08:01:44;45079.53;;;-143.84;32.72
6032;BME280;3044;43.232;27.972;2023-04-28T08:04:11;45092.88;;;-143.84;32.26
6032;BME280;3044;43.232;27.972;2023-04-28T08:06:39;45073.81;;;-143.84;31.46
6032;BME280;3044;43.232;27.972;2023-04-28T08:09:06;45083.34;;;-143.84;31.83
6032;BME280;3044;43.232;27.972;2023-04-28T08:11:33;45060.50;;;-143.84;32.06
6032;BME280;3044;43.232;27.972;2023-04-28T08:14:00;45090.97;;;-143.84;31.41
6032;BME280;3044;43.232;27.972;2023-04-28T08:16:27;45073.81;;;-143.84;31.21
6032;BME280;3044;43.232;27.972;2023-04-28T08:18:56;45064.31;;;-143.84;31.29
6032;BME280;3044;43.232;27.972;2023-04-28T08:21:24;45100.47;;;-143.84;31.49
6032;BME280;3044;43.232;27.972;2023-04-28T08:23:51;45073.81;;;-143.84;31.52
6032;BME280;3044;43.232;27.972;2023-04-28T08:26:18;45068.13;;;-143.84;31.38
6032;BME280;3044;43.232;27.972;2023-04-28T08:28:45;45066.22;;;-143.84;31.24
6032;BME280;3044;43.232;27.972;2023-04-28T08:31:12;45100.47;;;-143.84;31.78
6032;BME280;3044;43.232;27.972;2023-04-28T08:33:39;45068.13;;;-143.84;31.90
6032;BME280;3044;43.232;27.972;2023-04-28T08:36:11;45092.88;;;-143.84;31.49
6032;BME280;3044;43.232;27.972;2023-04-28T08:38:39;45073.81;;;-143.84;31.41
6032;BME280;3044;43.232;27.972;2023-04-28T08:41:07;45052.88;;;-143.84;31.42
6032;BME280;3044;43.232;27.972;2023-04-28T08:43:34;45094.78;;;-143.84;30.80
6032;BME280;3044;43.232;27.972;2023-04-28T08:46:05;45077.63;;;-143.84;31.21
6032;BME280;3044;43.232;27.972;2023-04-28T08:48:38;45075.72;;;-143.84;31.19
6032;BME280;3044;43.232;27.972;2023-04-28T08:51:06;45102.38;;;-143.84;31.49
6032;BME280;3044;43.232;27.972;2023-04-28T08:53:37;45077.63;;;-143.84;31.24
6032;BME280;3044;43.232;27.972;2023-04-28T08:56:05;45070.00;;;-143.84;29.92
6032;BME280;3044;43.232;27.972;2023-04-28T08:58:34;45077.63;;;-143.84;30.15
6032;BME280;3044;43.232;27.972;2023-04-28T09:01:02;45087.16;;;-143.84;30.17
6032;BME280;3044;43.232;27.972;2023-04-28T09:03:30;45075.72;;;-143.84;30.47
6032;BME280;3044;43.232;27.972;2023-04-28T09:05:58;45066.22;;;-143.84;30.13
6032;BME280;3044;43.232;27.972;2023-04-28T09:08:25;45070.00;;;-143.84;31.57
6032;BME280;3044;43.232;27.972;2023-04-28T09:11:09;45094.78;;;-143.84;31.49
6032;BME280;3044;43.232;27.972;2023-04-28T09:13:38;45070.00;;;-143.84;31.41
6032;BME280;3044;43.232;27.972;2023-04-28T09:16:06;45070.00;;;-143.84;30.35
6032;BME280;3044;43.232;27.972;2023-04-28T09:18:33;45070.00;;;-143.84;30.01
6032;BME280;3044;43.232;27.972;2023-04-28T09:21:05;45085.25;;;-143.84;29.99
6032;BME280;3044;43.232;27.972;2023-04-28T09:23:33;45089.06;;;-143.84;30.98
6032;BME280;3044;43.232;27.972;2023-04-28T09:26:01;45075.72;;;-143.84;30.58
6032;BME280;3044;43.232;27.972;2023-04-28T09:28:31;45071.91;;;-143.84;31.51
6032;BME280;3044;43.232;27.972;2023-04-28T09:30:58;45100.47;;;-143.84;31.06
6032;BME280;3044;43.232;27.972;2023-04-28T09:33:25;45079.53;;;-143.84;31.21
6032;BME280;3044;43.232;27.972;2023-04-28T09:35:53;45056.69;;;-143.84;31.12
6032;BME280;3044;43.232;27.972;2023-04-28T09:38:21;45083.34;;;-143.84;30.47
6032;BME280;3044;43.232;27.972;2023-04-28T09:40:50;45083.34;;;-143.84;30.69
6032;BME280;3044;43.232;27.972;2023-04-28T09:43:25;45062.41;;;-143.84;31.51
6032;BME280;3044;43.232;27.972;2023-04-28T09:45:54;45098.56;;;-143.84;31.00
6032;BME280;3044;43.232;27.972;2023-04-28T09:48:30;45081.44;;;-143.84;31.16
6032;BME280;3044;43.232;27.972;2023-04-28T09:50:58;45079.53;;;-143.84;32.71
6032;BME280;3044;43.232;27.972;2023-04-28T09:53:26;45110.00;;;-143.84;31.95
6032;BME280;3044;43.232;27.972;2023-04-28T09:55:54;45077.63;;;-143.84;30.42
6032;BME280;3044;43.232;27.972;2023-04-28T09:58:23;45094.78;;;-143.84;31.22
6032;BME280;3044;43.232;27.972;2023-04-28T10:00:54;45090.97;;;-143.84;31.49
6032;BME280;3044;43.232;27.972;2023-04-28T10:03:23;45096.66;;;-143.84;31.04
6032;BME280;3044;43.232;27.972;2023-04-28T10:05:50;45054.78;;;-143.84;32.33
6032;BME280;3044;43.232;27.972;2023-04-28T10:08:19;45077.63;;;-143.84;30.81
6032;BME280;3044;43.232;27.972;2023-04-28T10:10:47;45073.81;;;-143.84;31.46
6032;BME280;3044;43.232;27.972;2023-04-28T10:13:15;45075.72;;;-143.84;30.38
6032;BME280;3044;43.232;27.972;2023-04-28T10:15:43;45083.34;;;-143.84;30.62
6032;BME280;3044;43.232;27.972;2023-04-28T10:18:12;45081.44;;;-143.84;31.34
6032;BME280;3044;43.232;27.972;2023-04-28T10:20:41;45058.59;;;-143.84;30.65
6032;BME280;3044;43.232;27.972;2023-04-28T10:23:36;45056.69;;;-143.84;31.47
6032;BME280;3044;43.232;27.972;2023-04-28T10:26:10;45110.00;;;-143.84;30.46
6032;BME280;3044;43.232;27.972;2023-04-28T10:28:45;45068.13;;;-143.84;30.85
6032;BME280;3044;43.232;27.972;2023-04-28T10:31:15;45087.16;;;-143.84;30.33
6032;BME280;3044;43.232;27.972;2023-04-28T10:33:44;45071.91;;;-143.84;30.62
6032;BME280;3044;43.232;27.972;2023-04-28T10:36:48;45056.69;;;-143.84;30.61
6032;BME280;3044;43.232;27.972;2023-04-28T10:39:17;45070.00;;;-143.84;30.72
6032;BME280;3044;43.232;27.972;2023-04-28T10:41:44;45047.16;;;-143.84;30.81
6032;BME280;3044;43.232;27.972;2023-04-28T10:44:42;45071.91;;;-143.84;31.29
6032;BME280;3044;43.232;27.972;2023-04-28T10:47:10;45066.22;;;-143.84;31.07
6032;BME280;3044;43.232;27.972;2023-04-28T10:50:09;45043.34;;;-143.84;31.05
6032;BME280;3044;43.232;27.972;2023-04-28T10:52:49;45073.81;;;-143.84;29.96
6032;BME280;3044;43.232;27.972;2023-04-28T10:55:31;45087.16;;;-143.84;30.79
6032;BME280;3044;43.232;27.972;2023-04-28T10:58:31;45068.13;;;-143.84;29.99
6032;BME280;3044;43.232;27.972;2023-04-28T11:01:26;45043.34;;;-143.84;29.64
6032;BME280;3044;43.232;27.972;2023-04-28T11:14:54;45068.13;;;-143.84;30.22
6032;BME280;3044;43.232;27.972;2023-04-28T11:17:38;45056.69;;;-143.84;31.49
6032;BME280;3044;43.232;27.972;2023-04-28T11:20:07;45092.88;;;-143.84;30.38
6032;BME280;3044;43.232;27.972;2023-04-28T11:22:38;45064.31;;;-143.84;30.29
6032;BME280;3044;43.232;27.972;2023-04-28T11:25:07;45039.53;;;-143.84;30.50
6032;BME280;3044;43.232;27.972;2023-04-28T11:27:34;45056.69;;;-143.84;30.62
6032;BME280;3044;43.232;27.972;2023-04-28T11:30:17;45060.50;;;-143.84;30.44
6032;BME280;3044;43.232;27.972;2023-04-28T11:32:48;45085.25;;;-143.84;30.35
6032;BME280;3044;43.232;27.972;2023-04-28T11:35:16;45079.53;;;-143.84;30.68
6032;BME280;3044;43.232;27.972;2023-04-28T11:37:43;45089.06;;;-143.84;31.56
6032;BME280;3044;43.232;27.972;2023-04-28T11:40:10;45089.06;;;-143.84;32.79
6032;BME280;3044;43.232;27.972;2023-04-28T11:42:46;45071.91;;;-143.84;31.21
6032;BME280;3044;43.232;27.972;2023-04-28T11:45:15;45085.25;;;-143.84;30.52
6032;BME280;3044;43.232;27.972;2023-04-28T11:47:42;45077.63;;;-143.84;31.35
6032;BME280;3044;43.232;27.972;2023-04-28T11:50:09;45075.72;;;-143.84;31.09
6032;BME280;3044;43.232;27.972;2023-04-28T11:52:47;45071.91;;;-143.84;31.42
6032;BME280;3044;43.232;27.972;2023-04-28T11:55:15;45056.69;;;-143.84;31.41
6032;BME280;3044;43.232;27.972;2023-04-28T11:57:43;45075.72;;;-143.84;30.90
6032;BME280;3044;43.232;27.972;2023-04-28T12:00:15;45089.06;;;-143.84;30.54
6032;BME280;3044;43.232;27.972;2023-04-28T12:02:46;45073.81;;;-143.84;30.52
6032;BME280;3044;43.232;27.972;2023-04-28T12:05:13;45094.78;;;-143.84;30.78
6032;BME280;3044;43.232;27.972;2023-04-28T12:07:41;45079.53;;;-143.84;30.90
6032;BME280;3044;43.232;27.972;2023-04-28T12:10:12;45108.09;;;-143.84;30.95
6032;BME280;3044;43.232;27.972;2023-04-28T12:12:41;45075.72;;;-143.84;31.81
6032;BME280;3044;43.232;27.972;2023-04-28T12:15:08;45089.06;;;-143.84;31.46
6032;BME280;3044;43.232;27.972;2023-04-28T12:17:38;45068.13;;;-143.84;32.68
6032;BME280;3044;43.232;27.972;2023-04-28T12:20:07;45081.44;;;-143.84;32.62
6032;BME280;3044;43.232;27.972;2023-04-28T12:22:43;45050.97;;;-143.84;31.32
6032;BME280;3044;43.232;27.972;2023-04-28T12:25:12;45081.44;;;-143.84;31.27
6032;BME280;3044;43.232;27.972;2023-04-28T12:27:56;45070.00;;;-143.84;32.23
6032;BME280;3044;43.232;27.972;2023-04-28T12:30:24;45068.13;;;-143.84;32.54
6032;BME280;3044;43.232;27.972;2023-04-28T12:32:53;45064.31;;;-143.84;32.06
6032;BME280;3044;43.232;27.972;2023-04-28T12:35:22;45090.97;;;-143.84;31.79
6032;BME280;3044;43.232;27.972;2023-04-28T12:37:50;45075.72;;;-143.84;31.45
6032;BME280;3044;43.232;27.972;2023-04-28T12:40:17;45052.88;;;-143.84;31.99
6032;BME280;3044;43.232;27.972;2023-04-28T12:42:44;45056.69;;;-143.84;31.29
6032;BME280;3044;43.232;27.972;2023-04-28T13:52:44;45058.59;;;-143.84;30.92
6032;BME280;3044;43.232;27.972;2023-04-28T13:55:11;45066.22;;;-143.84;31.26
6032;BME280;3044;43.232;27.972;2023-04-28T13:57:38;45094.78;;;-143.84;31.24
6032;BME280;3044;43.232;27.972;2023-04-28T14:00:06;45079.53;;;-143.84;31.24
6032;BME280;3044;43.232;27.972;2023-04-28T14:02:33;45087.16;;;-143.84;31.04
6032;BME280;3044;43.232;27.972;2023-04-28T14:05:01;45068.13;;;-143.84;31.46
6032;BME280;3044;43.232;27.972;2023-04-28T14:07:28;45096.66;;;-143.84;31.65
6032;BME280;3044;43.232;27.972;2023-04-28T14:09:57;45058.59;;;-143.84;31.81
6032;BME280;3044;43.232;27.972;2023-04-28T14:12:24;45071.91;;;-143.84;32.26
6032;BME280;3044;43.232;27.972;2023-04-28T14:14:51;45102.38;;;-143.84;31.86
6032;BME280;3044;43.232;27.972;2023-04-28T14:17:18;45068.13;;;-143.84;32.12